createdAt,value
2023-09-27T00:02:36.662Z,20.80
2023-09-27T00:16:05.127Z,20.70
2023-09-27T00:19:21.040Z,20.70
2023-09-27T00:26:01.674Z,20.70
2023-09-27T00:35:37.238Z,20.60
2023-09-27T00:38:37.375Z,20.60
2023-09-27T00:41:38.005Z,20.70
2023-09-27T00:44:47.897Z,20.50
2023-09-27T00:47:43.895Z,20.60
2023-09-27T00:50:28.463Z,20.50
2023-09-27T00:53:44.369Z,20.50
2023-09-27T00:59:57.051Z,20.50
2023-09-27T01:02:31.885Z,20.40
2023-09-27T01:05:11.239Z,20.50
2023-09-27T01:07:45.684Z,20.50
2023-09-27T01:10:19.504Z,20.50
2023-09-27T01:12:53.436Z,20.40
2023-09-27T01:15:30.305Z,20.40
2023-09-27T01:18:04.724Z,20.40
2023-09-27T01:20:39.122Z,20.50
2023-09-27T01:23:15.504Z,20.40
2023-09-27T01:25:56.937Z,20.40
2023-09-27T01:28:36.089Z,20.40
2023-09-27T01:31:10.056Z,20.40
2023-09-27T01:33:43.923Z,20.40
2023-09-27T01:36:17.642Z,20.40
2023-09-27T01:38:53.359Z,20.40
2023-09-27T01:41:27.424Z,20.40
2023-09-27T01:44:01.131Z,20.40
2023-09-27T01:46:35.017Z,20.40
2023-09-27T01:49:08.730Z,20.40
2023-09-27T01:51:42.619Z,20.30
2023-09-27T01:54:18.279Z,20.30
2023-09-27T01:56:51.746Z,20.30
2023-09-27T01:59:25.923Z,20.30
2023-09-27T02:01:59.815Z,20.30
2023-09-27T02:04:33.760Z,20.30
2023-09-27T02:07:07.714Z,20.30
2023-09-27T02:09:43.035Z,20.20
2023-09-27T02:12:16.701Z,20.20
2023-09-27T02:14:50.296Z,20.20
2023-09-27T02:17:23.875Z,20.20
2023-09-27T02:19:58.025Z,20.20
2023-09-27T02:22:32.231Z,20.10
2023-09-27T02:25:11.464Z,20.10
2023-09-27T02:27:45.733Z,20.10
2023-09-27T02:30:19.382Z,20.10
2023-09-27T02:32:54.044Z,20.00
2023-09-27T02:35:28.957Z,20.00
2023-09-27T02:38:03.225Z,20.00
2023-09-27T02:40:38.231Z,19.90
2023-09-27T02:43:11.830Z,19.90
2023-09-27T02:45:46.866Z,19.90
2023-09-27T02:48:20.515Z,19.90
2023-09-27T02:50:54.983Z,19.90
2023-09-27T02:53:28.856Z,19.80
2023-09-27T02:56:06.416Z,19.80
2023-09-27T02:58:40.418Z,19.80
2023-09-27T03:01:13.850Z,19.70
2023-09-27T03:03:47.885Z,19.70
2023-09-27T03:06:21.263Z,19.70
2023-09-27T03:08:55.298Z,19.70
2023-09-27T03:11:30.594Z,19.60
2023-09-27T03:14:04.638Z,19.60
2023-09-27T03:16:38.679Z,19.60
2023-09-27T03:19:12.723Z,19.60
2023-09-27T03:21:45.992Z,19.60
2023-09-27T03:24:19.866Z,19.50
2023-09-27T03:26:55.105Z,19.50
2023-09-27T03:29:29.039Z,19.50
2023-09-27T03:32:02.927Z,19.50
2023-09-27T03:34:37.924Z,19.40
2023-09-27T03:37:11.665Z,19.50
2023-09-27T03:39:45.264Z,19.50
2023-09-27T03:42:20.327Z,19.50
2023-09-27T03:44:55.698Z,19.40
2023-09-27T03:47:31.267Z,19.30
2023-09-27T03:50:05.531Z,19.40
2023-09-27T03:52:39.029Z,19.40
2023-09-27T03:55:14.036Z,19.40
2023-09-27T03:57:49.207Z,19.40
2023-09-27T04:00:24.852Z,19.40
2023-09-27T04:02:59.771Z,19.30
2023-09-27T04:05:35.668Z,19.30
2023-09-27T04:08:09.874Z,19.30
2023-09-27T04:10:43.426Z,19.30
2023-09-27T04:13:18.310Z,19.30
2023-09-27T04:15:52.279Z,19.30
2023-09-27T04:18:26.118Z,19.30
2023-09-27T04:21:08.806Z,19.30
2023-09-27T04:23:44.196Z,19.30
2023-09-27T04:26:17.772Z,19.30
2023-09-27T04:28:53.642Z,19.20
2023-09-27T04:31:29.371Z,19.20
2023-09-27T04:34:03.030Z,19.20
2023-09-27T04:36:37.079Z,19.20
2023-09-27T04:39:12.389Z,19.20
2023-09-27T04:41:47.557Z,19.20
2023-09-27T04:44:23.048Z,19.20
2023-09-27T04:46:56.796Z,19.20
2023-09-27T04:49:30.572Z,19.20
2023-09-27T04:52:04.366Z,19.10
2023-09-27T04:54:38.232Z,19.10
2023-09-27T04:57:11.785Z,19.10
2023-09-27T04:59:47.055Z,19.10
2023-09-27T05:02:21.014Z,19.10
2023-09-27T05:04:54.778Z,19.10
2023-09-27T05:07:28.692Z,19.10
2023-09-27T05:10:02.520Z,19.00
2023-09-27T05:12:36.308Z,19.00
2023-09-27T05:15:12.632Z,19.00
2023-09-27T05:17:47.644Z,19.00
2023-09-27T05:20:21.492Z,18.90
2023-09-27T05:22:55.382Z,18.90
2023-09-27T05:25:29.789Z,18.90
2023-09-27T05:28:03.594Z,18.90
2023-09-27T05:30:39.258Z,18.90
2023-09-27T05:33:12.750Z,18.80
2023-09-27T05:35:46.925Z,18.80
2023-09-27T05:38:22.053Z,18.80
2023-09-27T05:40:55.994Z,18.70
2023-09-27T05:43:29.540Z,18.70
2023-09-27T05:46:04.948Z,18.70
2023-09-27T05:48:39.002Z,18.70
2023-09-27T05:51:12.766Z,18.60
2023-09-27T05:53:48.310Z,18.60
2023-09-27T05:56:22.272Z,18.60
2023-09-27T05:58:56.297Z,18.60
2023-09-27T06:01:33.247Z,18.60
2023-09-27T06:04:07.659Z,18.60
2023-09-27T06:06:41.632Z,18.60
2023-09-27T06:09:15.657Z,18.60
2023-09-27T06:11:49.727Z,18.60
2023-09-27T06:14:23.347Z,18.60
2023-09-27T06:16:59.439Z,18.60
2023-09-27T06:19:33.529Z,18.60
2023-09-27T06:22:07.944Z,18.40
2023-09-27T06:24:43.520Z,18.70
2023-09-27T06:27:17.954Z,18.70
2023-09-27T06:29:51.856Z,18.70
2023-09-27T06:32:27.451Z,18.70
2023-09-27T06:35:01.145Z,18.70
2023-09-27T06:37:34.775Z,18.80
2023-09-27T06:40:10.535Z,18.80
2023-09-27T06:42:44.369Z,18.90
2023-09-27T06:45:18.433Z,18.90
2023-09-27T06:47:53.634Z,19.00
2023-09-27T06:50:27.693Z,19.10
2023-09-27T06:53:15.781Z,19.10
2023-09-27T06:55:55.296Z,19.10
2023-09-27T06:58:29.812Z,19.20
2023-09-27T07:01:03.564Z,19.20
2023-09-27T07:03:39.346Z,19.20
2023-09-27T07:06:13.115Z,19.30
2023-09-27T07:08:53.550Z,19.30
2023-09-27T07:11:27.430Z,19.30
2023-09-27T07:14:01.616Z,19.30
2023-09-27T07:16:43.336Z,19.40
2023-09-27T07:19:25.938Z,19.40
2023-09-27T07:22:00.496Z,19.40
2023-09-27T07:24:34.573Z,19.40
2023-09-27T07:27:08.160Z,19.40
2023-09-27T07:29:42.835Z,19.40
2023-09-27T07:32:17.197Z,19.40
2023-09-27T07:34:54.535Z,19.50
2023-09-27T07:37:28.422Z,19.40
2023-09-27T07:40:02.458Z,19.50
2023-09-27T07:42:36.175Z,19.50
2023-09-27T07:45:15.559Z,19.50
2023-09-27T07:47:51.522Z,19.50
2023-09-27T07:50:29.736Z,19.60
2023-09-27T07:53:05.316Z,19.60
2023-09-27T07:55:48.112Z,19.60
2023-09-27T07:58:22.381Z,19.70
2023-09-27T08:00:56.053Z,19.70
2023-09-27T08:03:29.943Z,19.80
2023-09-27T08:06:05.779Z,19.90
2023-09-27T08:08:39.322Z,19.90
2023-09-27T08:11:14.755Z,20.10
2023-09-27T08:13:48.868Z,20.20
2023-09-27T08:16:22.478Z,20.30
2023-09-27T08:18:57.240Z,20.50
2023-09-27T08:21:32.070Z,20.60
2023-09-27T08:24:06.082Z,20.70
2023-09-27T08:26:40.021Z,20.80
2023-09-27T08:29:15.014Z,20.90
2023-09-27T08:31:49.696Z,21.10
2023-09-27T08:34:23.431Z,21.20
2023-09-27T08:36:59.367Z,21.30
2023-09-27T08:39:33.494Z,21.40
2023-09-27T08:42:07.610Z,21.50
2023-09-27T08:44:42.316Z,21.60
2023-09-27T08:47:17.286Z,21.70
2023-09-27T08:49:52.025Z,21.80
2023-09-27T08:52:28.417Z,21.90
2023-09-27T08:55:05.269Z,21.90
2023-09-27T08:57:40.704Z,22.00
2023-09-27T09:00:21.605Z,22.10
2023-09-27T09:03:00.389Z,22.10
2023-09-27T09:05:34.503Z,22.20
2023-09-27T09:08:10.555Z,22.20
2023-09-27T09:10:47.178Z,22.30
2023-09-27T09:13:24.390Z,22.30
2023-09-27T09:15:58.612Z,22.40
2023-09-27T09:18:34.613Z,22.50
2023-09-27T09:21:15.490Z,22.60
2023-09-27T09:23:51.298Z,22.80
2023-09-27T09:26:31.036Z,22.90
2023-09-27T09:29:09.251Z,23.00
2023-09-27T09:31:54.728Z,23.10
2023-09-27T09:34:27.326Z,23.30
2023-09-27T09:37:01.336Z,23.40
2023-09-27T09:39:37.456Z,23.50
2023-09-27T09:42:11.158Z,23.60
2023-09-27T09:44:44.789Z,23.70
2023-09-27T09:47:18.731Z,23.90
2023-09-27T09:49:52.456Z,24.00
2023-09-27T09:52:31.082Z,24.10
2023-09-27T09:55:24.042Z,24.20
2023-09-27T09:58:22.889Z,24.30
2023-09-27T10:00:59.272Z,24.50
2023-09-27T10:03:35.696Z,24.60
2023-09-27T10:06:12.285Z,24.70
2023-09-27T10:08:49.204Z,24.80
2023-09-27T10:11:26.253Z,24.90
2023-09-27T10:14:01.488Z,25.00
2023-09-27T10:16:36.067Z,25.10
2023-09-27T10:19:09.609Z,25.10
2023-09-27T10:22:06.442Z,25.30
2023-09-27T10:24:45.208Z,25.40
2023-09-27T10:27:20.227Z,25.60
2023-09-27T10:30:23.028Z,25.70
2023-09-27T10:33:34.336Z,25.90
2023-09-27T10:36:34.313Z,26.00
2023-09-27T10:39:07.937Z,26.10
2023-09-27T10:41:49.920Z,25.90
2023-09-27T10:44:33.422Z,26.30
2023-09-27T10:47:10.469Z,26.50
2023-09-27T10:49:44.756Z,26.60
2023-09-27T10:52:20.046Z,26.70
2023-09-27T10:54:53.709Z,26.70
2023-09-27T10:57:28.168Z,26.80
2023-09-27T11:00:05.738Z,27.00
2023-09-27T11:02:39.690Z,27.00
2023-09-27T11:05:13.554Z,27.10
2023-09-27T11:07:49.534Z,27.30
2023-09-27T11:10:34.430Z,27.40
2023-09-27T11:13:11.859Z,27.50
2023-09-27T11:15:47.627Z,27.50
2023-09-27T11:18:21.257Z,27.60
2023-09-27T11:20:54.980Z,27.70
2023-09-27T11:23:28.913Z,27.70
2023-09-27T11:26:06.105Z,27.70
2023-09-27T11:28:40.042Z,27.70
2023-09-27T11:31:24.556Z,27.70
2023-09-27T11:34:14.373Z,27.70
2023-09-27T11:36:49.661Z,27.70
2023-09-27T11:39:30.653Z,27.70
2023-09-27T11:42:04.814Z,27.70
2023-09-27T11:44:39.079Z,27.70
2023-09-27T11:47:14.904Z,27.70
2023-09-27T11:49:51.953Z,27.70
2023-09-27T11:52:25.492Z,27.70
2023-09-27T11:54:59.332Z,27.70
2023-09-27T11:57:33.266Z,27.60
2023-09-27T12:00:09.503Z,27.60
2023-09-27T12:02:56.268Z,27.70
2023-09-27T12:05:31.491Z,27.60
2023-09-27T12:08:05.684Z,27.60
2023-09-27T12:10:39.941Z,27.70
2023-09-27T12:13:13.531Z,27.70
2023-09-27T12:15:47.106Z,27.70
2023-09-27T12:18:22.218Z,27.70
2023-09-27T12:20:57.359Z,27.80
2023-09-27T12:23:32.605Z,27.90
2023-09-27T12:26:06.503Z,28.00
2023-09-27T12:28:40.011Z,28.10
2023-09-27T12:31:13.813Z,28.20
2023-09-27T12:33:49.265Z,28.30
2023-09-27T12:36:23.223Z,28.10
2023-09-27T12:38:57.083Z,28.40
2023-09-27T12:41:30.633Z,28.50
2023-09-27T12:44:04.669Z,28.50
2023-09-27T12:46:38.139Z,28.60
2023-09-27T12:49:13.353Z,28.60
2023-09-27T12:51:49.897Z,28.50
2023-09-27T12:54:24.173Z,28.70
2023-09-27T12:56:59.354Z,28.80
2023-09-27T12:59:33.308Z,28.80
2023-09-27T13:02:07.632Z,28.80
2023-09-27T13:04:44.457Z,28.80
2023-09-27T13:07:18.632Z,28.80
2023-09-27T13:09:52.502Z,28.80
2023-09-27T13:12:25.889Z,28.80
2023-09-27T13:14:59.983Z,28.80
2023-09-27T13:17:33.852Z,28.80
2023-09-27T13:20:11.788Z,28.70
2023-09-27T13:22:45.740Z,28.70
2023-09-27T13:25:20.400Z,28.70
2023-09-27T13:27:53.805Z,28.60
2023-09-27T13:30:35.295Z,28.60
2023-09-27T13:33:10.670Z,28.50
2023-09-27T13:35:46.280Z,28.50
2023-09-27T13:38:20.657Z,28.40
2023-09-27T13:40:54.312Z,28.40
2023-09-27T13:43:30.025Z,28.30
2023-09-27T13:46:06.961Z,28.30
2023-09-27T13:48:40.729Z,28.30
2023-09-27T13:51:15.833Z,28.20
2023-09-27T13:53:49.807Z,28.20
2023-09-27T13:56:23.548Z,28.20
2023-09-27T13:58:57.515Z,28.10
2023-09-27T14:01:31.726Z,28.10
2023-09-27T14:04:06.680Z,28.10
2023-09-27T14:06:41.888Z,28.10
2023-09-27T14:09:15.736Z,28.00
2023-09-27T14:11:49.340Z,28.00
2023-09-27T14:14:23.275Z,28.00
2023-09-27T14:16:59.428Z,28.00
2023-09-27T14:19:32.929Z,27.90
2023-09-27T14:22:08.481Z,28.00
2023-09-27T14:24:42.430Z,28.00
2023-09-27T14:27:16.405Z,28.00
2023-09-27T14:29:50.480Z,28.00
2023-09-27T14:32:24.461Z,28.00
2023-09-27T14:34:58.850Z,28.00
2023-09-27T14:37:34.632Z,28.00
2023-09-27T14:40:11.241Z,28.00
2023-09-27T14:42:44.683Z,28.00
2023-09-27T14:45:31.563Z,28.00
2023-09-27T14:48:07.773Z,28.00
2023-09-27T14:50:41.955Z,28.00
2023-09-27T14:53:16.876Z,28.00
2023-09-27T14:55:51.674Z,27.90
2023-09-27T14:58:25.293Z,27.90
2023-09-27T15:00:58.784Z,27.90
2023-09-27T15:03:32.783Z,27.90
2023-09-27T15:06:08.350Z,27.90
2023-09-27T15:08:44.366Z,27.90
2023-09-27T15:11:24.647Z,27.90
2023-09-27T15:13:59.739Z,27.90
2023-09-27T15:16:35.435Z,27.80
2023-09-27T15:19:09.489Z,27.80
2023-09-27T15:21:43.242Z,27.80
2023-09-27T15:24:18.551Z,27.70
2023-09-27T15:26:51.985Z,27.70
2023-09-27T15:29:25.460Z,27.70
2023-09-27T15:31:59.012Z,27.60
2023-09-27T15:34:35.924Z,27.60
2023-09-27T15:37:11.401Z,27.60
2023-09-27T15:39:46.564Z,27.60
2023-09-27T15:42:19.930Z,27.50
2023-09-27T15:44:53.730Z,27.50
2023-09-27T15:47:27.170Z,27.50
2023-09-27T15:50:00.936Z,27.50
2023-09-27T15:52:36.187Z,27.40
2023-09-27T15:55:13.163Z,27.40
2023-09-27T15:57:46.844Z,27.40
2023-09-27T16:00:20.705Z,27.40
2023-09-27T16:02:54.183Z,27.30
2023-09-27T16:05:27.782Z,27.30
2023-09-27T16:08:01.247Z,27.30
2023-09-27T16:10:39.668Z,27.20
2023-09-27T16:13:23.968Z,27.20
2023-09-27T16:15:57.567Z,27.20
2023-09-27T16:18:32.425Z,27.10
2023-09-27T16:21:06.373Z,27.10
2023-09-27T16:23:39.910Z,27.10
2023-09-27T16:26:16.130Z,27.00
2023-09-27T16:28:50.132Z,27.00
2023-09-27T16:31:27.101Z,26.90
2023-09-27T16:34:02.040Z,26.90
2023-09-27T16:36:35.797Z,26.90
2023-09-27T16:39:13.159Z,26.80
2023-09-27T16:41:48.620Z,26.80
2023-09-27T16:44:22.776Z,26.70
2023-09-27T16:46:57.891Z,26.70
2023-09-27T16:49:32.254Z,26.60
2023-09-27T16:52:06.340Z,26.50
2023-09-27T16:54:39.961Z,26.50
2023-09-27T16:57:14.958Z,26.50
2023-09-27T16:59:48.696Z,26.40
2023-09-27T17:02:22.928Z,26.30
2023-09-27T17:04:57.737Z,26.20
2023-09-27T17:07:34.333Z,26.20
2023-09-27T17:10:11.549Z,26.10
2023-09-27T17:12:49.260Z,26.00
2023-09-27T17:15:23.281Z,26.00
2023-09-27T17:17:57.647Z,25.90
2023-09-27T17:20:31.717Z,25.80
2023-09-27T17:23:05.791Z,25.80
2023-09-27T17:25:39.410Z,25.70
2023-09-27T17:28:14.730Z,25.60
2023-09-27T17:30:48.513Z,25.50
2023-09-27T17:33:22.147Z,25.50
2023-09-27T17:36:00.804Z,25.40
2023-09-27T17:38:34.602Z,25.40
2023-09-27T17:41:08.544Z,25.30
2023-09-27T17:43:44.378Z,25.20
2023-09-27T17:46:25.025Z,25.20
2023-09-27T17:49:03.434Z,25.10
2023-09-27T17:51:38.437Z,25.00
2023-09-27T17:54:13.481Z,25.00
2023-09-27T17:56:47.248Z,24.90
2023-09-27T17:59:22.676Z,24.90
2023-09-27T18:01:56.629Z,24.80
2023-09-27T18:04:30.373Z,24.70
2023-09-27T18:07:04.020Z,24.70
2023-09-27T18:09:39.060Z,24.60
2023-09-27T18:12:13.764Z,24.60
2023-09-27T18:14:49.101Z,24.50
2023-09-27T18:17:23.136Z,24.50
2023-09-27T18:19:57.971Z,24.40
2023-09-27T18:22:32.622Z,24.30
2023-09-27T18:25:07.633Z,24.30
2023-09-27T18:27:42.601Z,24.20
2023-09-27T18:30:20.227Z,24.20
2023-09-27T18:32:53.948Z,24.10
2023-09-27T18:35:27.776Z,24.10
2023-09-27T18:38:01.985Z,24.00
2023-09-27T18:40:38.402Z,24.00
2023-09-27T18:43:12.013Z,23.90
2023-09-27T18:45:50.673Z,23.90
2023-09-27T18:48:24.506Z,23.80
2023-09-27T18:50:59.605Z,23.80
2023-09-27T18:53:33.411Z,23.80
2023-09-27T18:56:08.493Z,23.70
2023-09-27T18:58:42.519Z,23.70
2023-09-27T19:01:18.132Z,23.70
2023-09-27T19:03:53.673Z,23.70
2023-09-27T19:06:27.338Z,23.60
2023-09-27T19:09:02.805Z,23.60
2023-09-27T19:11:37.302Z,23.50
2023-09-27T19:14:13.845Z,23.50
2023-09-27T19:16:50.984Z,23.50
2023-09-27T19:19:24.435Z,23.40
2023-09-27T19:21:58.052Z,23.40
2023-09-27T19:24:36.977Z,23.40
2023-09-27T19:27:10.856Z,23.40
2023-09-27T19:29:47.544Z,23.30
2023-09-27T19:32:24.255Z,23.30
2023-09-27T19:34:58.393Z,23.30
2023-09-27T19:37:32.077Z,23.30
2023-09-27T19:40:07.405Z,23.20
2023-09-27T19:42:43.776Z,23.20
2023-09-27T19:45:18.084Z,23.20
2023-09-27T19:47:58.222Z,23.20
2023-09-27T19:50:32.157Z,23.20
2023-09-27T19:53:07.816Z,23.20
2023-09-27T19:55:41.918Z,23.10
2023-09-27T19:58:17.526Z,23.10
2023-09-27T20:00:52.903Z,23.10
2023-09-27T20:03:28.338Z,23.10
2023-09-27T20:06:04.141Z,23.10
2023-09-27T20:08:37.998Z,23.00
2023-09-27T20:11:11.520Z,23.00
2023-09-27T20:13:45.527Z,23.00
2023-09-27T20:16:19.455Z,23.00
2023-09-27T20:18:55.261Z,23.00
2023-09-27T20:21:29.349Z,23.00
2023-09-27T20:24:10.809Z,23.00
2023-09-27T20:26:45.042Z,22.90
2023-09-27T20:29:18.780Z,22.90
2023-09-27T20:31:53.169Z,22.90
2023-09-27T20:34:28.928Z,22.90
2023-09-27T20:37:02.968Z,22.90
2023-09-27T20:39:36.734Z,22.90
2023-09-27T20:42:10.848Z,22.90
2023-09-27T20:44:45.386Z,22.80
2023-09-27T20:47:18.876Z,22.80
2023-09-27T20:49:54.217Z,22.80
2023-09-27T20:52:28.095Z,22.80
2023-09-27T20:55:20.761Z,22.80
2023-09-27T20:57:57.690Z,22.70
2023-09-27T21:00:32.137Z,22.70
2023-09-27T21:03:06.686Z,22.70
2023-09-27T21:05:43.750Z,22.70
2023-09-27T21:08:17.507Z,22.70
2023-09-27T21:10:51.460Z,22.70
2023-09-27T21:13:29.425Z,22.70
2023-09-27T21:16:05.659Z,22.70
2023-09-27T21:18:39.368Z,22.70
2023-09-27T21:21:15.457Z,22.80
2023-09-27T21:23:51.838Z,22.80
2023-09-27T21:26:25.881Z,22.80
2023-09-27T21:29:00.180Z,22.80
2023-09-27T21:31:34.349Z,22.80
2023-09-27T21:34:08.839Z,22.80
2023-09-27T21:36:44.597Z,22.80
2023-09-27T21:39:19.195Z,22.80
2023-09-27T21:41:52.596Z,22.80
2023-09-27T21:44:26.506Z,22.80
2023-09-27T21:47:00.295Z,22.80
2023-09-27T21:49:34.131Z,22.80
2023-09-27T21:52:09.484Z,22.80
2023-09-27T21:54:43.086Z,22.80
2023-09-27T21:57:16.637Z,22.80
2023-09-27T21:59:50.194Z,22.80
2023-09-27T22:02:23.793Z,22.80
2023-09-27T22:04:58.970Z,22.80
2023-09-27T22:07:35.449Z,22.80
2023-09-27T22:10:10.823Z,22.60
2023-09-27T22:12:44.429Z,22.80
2023-09-27T22:15:18.624Z,22.80
2023-09-27T22:17:56.328Z,22.80
2023-09-27T22:20:31.073Z,22.80
2023-09-27T22:23:07.868Z,22.80
2023-09-27T22:25:45.098Z,22.80
2023-09-27T22:28:20.261Z,22.80
2023-09-27T22:30:54.621Z,22.80
2023-09-27T22:33:31.026Z,22.80
2023-09-27T22:36:04.782Z,22.80
2023-09-27T22:38:40.952Z,22.80
2023-09-27T22:41:17.229Z,22.80
2023-09-27T22:43:50.842Z,22.80
2023-09-27T22:46:24.665Z,22.90
2023-09-27T22:48:58.225Z,22.90
2023-09-27T22:51:31.938Z,22.90
2023-09-27T22:54:08.693Z,22.90
2023-09-27T22:56:43.267Z,22.90
2023-09-27T22:59:18.210Z,22.90
2023-09-27T23:01:56.785Z,22.90
2023-09-27T23:04:30.828Z,22.90
2023-09-27T23:07:05.968Z,22.90
2023-09-27T23:09:42.220Z,22.90
2023-09-27T23:12:20.689Z,22.90
2023-09-27T23:15:12.975Z,22.90
2023-09-27T23:18:01.589Z,22.90
2023-09-27T23:20:35.773Z,23.00
2023-09-27T23:23:17.706Z,23.00
2023-09-27T23:25:55.839Z,23.00
2023-09-27T23:28:41.567Z,23.00
2023-09-27T23:31:14.360Z,23.00
2023-09-27T23:33:50.708Z,23.00
2023-09-27T23:36:27.008Z,23.00
2023-09-27T23:39:18.344Z,23.00
2023-09-27T23:41:56.811Z,23.00
2023-09-27T23:44:31.433Z,23.00
2023-09-27T23:47:05.488Z,23.00
2023-09-27T23:49:43.216Z,22.90
2023-09-27T23:52:16.637Z,22.90
2023-09-27T23:54:50.285Z,22.90
2023-09-27T23:57:29.271Z,22.90
